createdAt,value
2018-08-17T00:00:34.681Z,80.60
2018-08-17T00:03:03.170Z,80.50
2018-08-17T00:05:31.584Z,81.20
2018-08-17T00:08:00.020Z,80.70
2018-08-17T00:10:28.649Z,81.00
2018-08-17T00:12:57.377Z,81.00
2018-08-17T00:15:25.793Z,80.70
2018-08-17T00:17:54.859Z,81.20
2018-08-17T00:20:23.388Z,81.10
2018-08-17T00:22:52.602Z,80.70
2018-08-17T00:25:21.042Z,80.80
2018-08-17T00:27:49.500Z,81.00
2018-08-17T00:30:19.020Z,80.60
2018-08-17T00:32:47.477Z,80.40
2018-08-17T00:35:16.005Z,80.60
2018-08-17T00:37:44.520Z,80.70
2018-08-17T00:40:13.876Z,81.50
2018-08-17T00:42:42.330Z,81.30
2018-08-17T00:45:10.792Z,81.70
2018-08-17T00:47:39.252Z,81.90
2018-08-17T00:50:07.707Z,82.20
2018-08-17T00:52:36.174Z,81.80
2018-08-17T00:55:05.852Z,82.30
2018-08-17T00:57:34.336Z,82.60
2018-08-17T01:00:02.792Z,82.80
2018-08-17T01:02:31.232Z,83.20
2018-08-17T01:04:59.685Z,83.40
2018-08-17T01:07:28.105Z,83.50
2018-08-17T01:09:56.560Z,83.60
2018-08-17T01:12:25.025Z,83.80
2018-08-17T01:14:53.799Z,83.90
2018-08-17T01:17:22.217Z,83.60
2018-08-17T01:19:50.704Z,83.70
2018-08-17T01:22:19.881Z,83.70
2018-08-17T01:24:48.278Z,83.50
2018-08-17T01:27:16.737Z,83.60
2018-08-17T01:29:45.236Z,83.90
2018-08-17T01:32:13.660Z,83.50
2018-08-17T01:34:42.120Z,83.90
2018-08-17T01:37:10.956Z,83.90
2018-08-17T01:39:39.394Z,84.10
2018-08-17T01:42:07.844Z,84.60
2018-08-17T01:44:36.284Z,84.40
2018-08-17T01:47:04.785Z,84.50
2018-08-17T01:49:33.926Z,84.20
2018-08-17T01:52:02.812Z,84.30
2018-08-17T01:54:31.248Z,84.10
2018-08-17T01:56:59.664Z,84.30
2018-08-17T01:59:28.142Z,84.50
2018-08-17T02:01:58.224Z,84.70
2018-08-17T02:04:26.656Z,85.00
2018-08-17T02:06:55.835Z,85.50
2018-08-17T02:09:24.305Z,86.30
2018-08-17T02:11:52.722Z,86.50
2018-08-17T02:14:21.284Z,86.60
2018-08-17T02:16:50.229Z,86.70
2018-08-17T02:19:18.647Z,86.60
2018-08-17T02:21:47.061Z,86.60
2018-08-17T02:24:16.249Z,86.60
2018-08-17T02:26:44.725Z,86.80
2018-08-17T02:29:13.162Z,86.90
2018-08-17T02:31:41.604Z,87.20
2018-08-17T02:34:10.025Z,87.40
2018-08-17T02:36:38.493Z,87.40
2018-08-17T02:39:07.636Z,88.10
2018-08-17T02:41:36.073Z,88.90
2018-08-17T02:44:04.615Z,87.90
2018-08-17T02:46:37.511Z,88.00
2018-08-17T02:49:06.056Z,87.60
2018-08-17T02:51:34.552Z,87.80
2018-08-17T02:54:03.295Z,88.00
2018-08-17T02:56:31.739Z,88.30
2018-08-17T02:59:00.925Z,88.50
2018-08-17T03:01:29.349Z,88.70
2018-08-17T03:03:57.808Z,89.00
2018-08-17T03:06:26.282Z,88.60
2018-08-17T03:08:54.797Z,88.10
2018-08-17T03:11:23.484Z,88.40
2018-08-17T03:13:51.971Z,88.60
2018-08-17T03:16:20.432Z,88.70
2018-08-17T03:18:48.873Z,89.00
2018-08-17T03:21:17.345Z,89.20
2018-08-17T03:23:45.758Z,89.40
2018-08-17T03:26:14.193Z,90.10
2018-08-17T03:28:42.773Z,90.50
2018-08-17T03:31:11.189Z,90.40
2018-08-17T03:33:39.631Z,90.50
2018-08-17T03:36:08.092Z,90.70
2018-08-17T03:38:36.537Z,90.70
2018-08-17T03:41:05.274Z,91.00
2018-08-17T03:43:33.748Z,91.20
2018-08-17T03:46:02.748Z,91.60
2018-08-17T03:48:32.041Z,91.30
2018-08-17T03:51:00.490Z,91.40
2018-08-17T03:53:28.915Z,91.60
2018-08-17T03:55:57.396Z,91.70
2018-08-17T03:58:25.908Z,91.70
2018-08-17T04:00:54.404Z,91.80
2018-08-17T04:03:27.368Z,91.70
2018-08-17T04:05:55.844Z,91.60
2018-08-17T04:08:25.020Z,91.60
2018-08-17T04:10:53.429Z,91.60
2018-08-17T04:13:22.856Z,91.50
2018-08-17T04:15:56.295Z,91.80
2018-08-17T04:18:25.290Z,91.80
2018-08-17T04:20:53.795Z,92.00
2018-08-17T04:23:26.421Z,92.00
2018-08-17T04:25:54.848Z,92.00
2018-08-17T04:28:23.296Z,92.20
2018-08-17T04:30:52.045Z,91.90
2018-08-17T04:33:21.177Z,91.70
2018-08-17T04:35:49.646Z,91.70
2018-08-17T04:38:18.156Z,91.70
2018-08-17T04:40:46.600Z,91.90
2018-08-17T04:43:15.305Z,91.80
2018-08-17T04:45:43.730Z,91.80
2018-08-17T04:48:12.885Z,91.90
2018-08-17T04:50:46.553Z,92.20
2018-08-17T04:53:15.789Z,92.40
2018-08-17T04:55:44.592Z,92.30
2018-08-17T04:58:13.284Z,92.20
2018-08-17T05:00:42.048Z,92.10
2018-08-17T05:03:10.841Z,92.30
2018-08-17T05:08:12.085Z,92.10
2018-08-17T05:10:40.570Z,92.30
2018-08-17T05:13:09.006Z,92.40
2018-08-17T05:15:37.417Z,92.20
2018-08-17T05:18:06.209Z,91.90
2018-08-17T05:20:34.690Z,91.80
2018-08-17T05:23:07.183Z,91.70
2018-08-17T05:25:35.620Z,91.60
2018-08-17T05:28:04.368Z,91.40
2018-08-17T05:30:32.880Z,91.30
2018-08-17T05:33:02.070Z,91.30
2018-08-17T05:35:30.574Z,91.00
2018-08-17T05:37:59.597Z,90.90
2018-08-17T05:40:28.970Z,90.80
2018-08-17T05:42:57.393Z,90.60
2018-08-17T05:45:25.924Z,90.50
2018-08-17T05:47:54.567Z,90.90
2018-08-17T05:50:22.985Z,90.70
2018-08-17T05:52:51.422Z,90.50
2018-08-17T05:55:20.003Z,90.30
2018-08-17T05:57:48.566Z,90.50
2018-08-17T06:00:17.109Z,90.60
2018-08-17T06:02:47.216Z,90.70
2018-08-17T06:05:15.627Z,90.70
2018-08-17T06:07:44.172Z,90.50
2018-08-17T06:10:13.976Z,90.90
2018-08-17T06:12:42.406Z,90.70
2018-08-17T06:15:10.880Z,90.60
2018-08-17T06:17:39.586Z,90.40
2018-08-17T06:20:09.053Z,90.10
2018-08-17T06:22:38.362Z,90.00
2018-08-17T06:25:13.844Z,90.00
2018-08-17T06:27:42.718Z,90.20
2018-08-17T06:30:12.771Z,90.40
2018-08-17T06:32:41.510Z,90.40
2018-08-17T06:35:11.348Z,90.40
2018-08-17T06:37:41.144Z,90.50
2018-08-17T06:40:10.431Z,90.40
2018-08-17T06:42:39.165Z,90.50
2018-08-17T06:45:10.752Z,89.90
2018-08-17T06:47:39.276Z,89.40
2018-08-17T06:50:09.475Z,89.10
2018-08-17T06:52:38.580Z,88.80
2018-08-17T06:55:08.290Z,89.20
2018-08-17T06:57:37.709Z,88.90
2018-08-17T07:00:12.420Z,88.50
2018-08-17T07:02:41.400Z,88.10
2018-08-17T07:05:09.864Z,87.20
2018-08-17T07:07:38.684Z,86.90
2018-08-17T07:10:08.608Z,85.80
2018-08-17T07:12:37.209Z,85.30
2018-08-17T07:15:06.284Z,85.20
2018-08-17T07:17:34.878Z,84.70
2018-08-17T07:20:03.436Z,83.00
2018-08-17T07:22:32.087Z,82.70
2018-08-17T07:25:00.592Z,82.60
2018-08-17T07:27:29.129Z,83.30
2018-08-17T07:29:58.212Z,83.30
2018-08-17T07:32:27.817Z,83.00
2018-08-17T07:34:56.195Z,82.60
2018-08-17T07:37:24.788Z,82.60
2018-08-17T07:39:53.220Z,82.50
2018-08-17T07:42:21.885Z,82.10
2018-08-17T07:44:50.572Z,81.80
2018-08-17T07:47:19.192Z,80.80
2018-08-17T07:49:48.754Z,79.80
2018-08-17T07:52:17.800Z,80.90
2018-08-17T07:54:46.496Z,79.80
2018-08-17T07:57:14.968Z,77.90
2018-08-17T07:59:43.579Z,76.60
2018-08-17T08:02:12.252Z,75.00
2018-08-17T08:04:40.883Z,71.90
2018-08-17T08:07:09.580Z,73.50
2018-08-17T08:09:38.169Z,71.60
2018-08-17T08:12:06.881Z,70.70
2018-08-17T08:14:36.056Z,70.70
2018-08-17T08:17:04.697Z,68.40
2018-08-17T08:19:33.759Z,69.70
2018-08-17T08:22:02.253Z,68.20
2018-08-17T08:24:32.988Z,65.80
2018-08-17T08:27:01.492Z,63.90
2018-08-17T08:29:29.904Z,65.30
2018-08-17T08:31:58.469Z,63.60
2018-08-17T08:34:27.050Z,62.50
2018-08-17T08:36:56.208Z,62.80
2018-08-17T08:39:24.765Z,62.10
2018-08-17T08:41:53.493Z,61.50
2018-08-17T08:44:21.961Z,61.40
2018-08-17T08:46:50.585Z,60.00
2018-08-17T08:49:19.744Z,59.20
2018-08-17T08:51:50.289Z,59.60
2018-08-17T08:54:18.667Z,60.00
2018-08-17T08:56:48.056Z,59.20
2018-08-17T08:59:16.710Z,58.80
2018-08-17T09:01:45.725Z,57.70
2018-08-17T09:04:14.601Z,56.80
2018-08-17T09:06:43.132Z,54.00
2018-08-17T09:09:11.558Z,54.00
2018-08-17T09:11:40.165Z,53.50
2018-08-17T09:14:08.639Z,52.60
2018-08-17T09:16:37.750Z,53.10
2018-08-17T09:19:06.505Z,53.60
2018-08-17T09:21:35.553Z,53.90
2018-08-17T09:24:04.113Z,52.80
2018-08-17T09:26:32.520Z,51.10
2018-08-17T09:29:01.211Z,51.80
2018-08-17T09:31:29.761Z,52.00
2018-08-17T09:33:58.240Z,52.00
2018-08-17T09:36:27.114Z,52.50
2018-08-17T09:38:55.764Z,52.90
2018-08-17T09:41:24.310Z,53.10
2018-08-17T09:43:53.412Z,52.80
2018-08-17T09:46:21.926Z,52.20
2018-08-17T09:48:50.457Z,52.90
2018-08-17T09:51:19.526Z,52.80
2018-08-17T09:53:47.943Z,51.20
2018-08-17T09:56:16.427Z,51.30
2018-08-17T09:58:45.305Z,51.60
2018-08-17T10:01:19.528Z,52.10
2018-08-17T10:04:53.264Z,52.90
2018-08-17T10:07:27.129Z,52.90
2018-08-17T10:10:01.365Z,53.80
2018-08-17T10:12:29.948Z,51.50
2018-08-17T10:14:58.349Z,51.90
2018-08-17T10:17:26.961Z,53.10
2018-08-17T10:19:56.105Z,51.70
2018-08-17T10:22:25.612Z,48.00
2018-08-17T10:25:01.504Z,47.20
2018-08-17T10:27:29.944Z,46.00
2018-08-17T10:29:59.149Z,45.40
2018-08-17T10:32:27.628Z,44.90
2018-08-17T10:34:56.038Z,44.80
2018-08-17T10:37:24.936Z,44.90
2018-08-17T10:39:53.497Z,44.60
2018-08-17T10:42:21.926Z,44.60
2018-08-17T10:44:50.449Z,44.20
2018-08-17T10:47:18.844Z,43.60
2018-08-17T10:49:47.532Z,43.20
2018-08-17T10:52:16.102Z,43.90
2018-08-17T10:54:44.641Z,43.70
2018-08-17T10:57:13.090Z,44.30
2018-08-17T10:59:48.104Z,45.00
2018-08-17T11:02:16.668Z,43.90
2018-08-17T11:04:46.297Z,44.30
2018-08-17T11:07:15.936Z,44.10
2018-08-17T11:09:44.399Z,44.30
2018-08-17T11:12:13.477Z,44.80
2018-08-17T11:14:41.956Z,45.80
2018-08-17T11:17:10.521Z,45.00
2018-08-17T11:19:39.056Z,44.40
2018-08-17T11:22:07.544Z,44.40
2018-08-17T11:24:35.997Z,44.50
2018-08-17T11:27:04.569Z,44.80
2018-08-17T11:29:33.666Z,45.80
2018-08-17T11:32:02.197Z,45.80
2018-08-17T11:34:30.779Z,46.40
2018-08-17T11:36:59.255Z,45.30
2018-08-17T11:39:28.098Z,44.90
2018-08-17T11:41:57.221Z,45.00
2018-08-17T11:44:26.070Z,45.60
2018-08-17T11:46:55.752Z,44.60
2018-08-17T11:49:26.899Z,44.70
2018-08-17T11:51:55.367Z,45.40
2018-08-17T11:54:23.925Z,46.10
2018-08-17T11:56:52.352Z,45.80
2018-08-17T11:59:20.848Z,46.50
2018-08-17T12:01:50.038Z,47.00
2018-08-17T12:04:18.614Z,46.40
2018-08-17T12:06:47.309Z,47.60
2018-08-17T12:09:15.877Z,47.40
2018-08-17T12:11:44.534Z,46.90
2018-08-17T12:14:13.021Z,46.30
2018-08-17T12:16:42.460Z,47.30
2018-08-17T12:19:10.961Z,47.40
2018-08-17T12:21:39.465Z,48.30
2018-08-17T12:24:07.978Z,49.50
2018-08-17T12:26:41.774Z,50.00
2018-08-17T12:29:10.440Z,50.80
2018-08-17T12:31:39.080Z,51.10
2018-08-17T12:34:07.541Z,52.30
2018-08-17T12:36:36.190Z,52.20
2018-08-17T12:39:05.265Z,52.10
2018-08-17T12:41:34.137Z,52.20
2018-08-17T12:44:02.601Z,52.90
2018-08-17T12:46:31.202Z,53.30
2018-08-17T12:49:00.229Z,54.30
2018-08-17T12:51:28.793Z,54.50
2018-08-17T12:53:57.302Z,54.70
2018-08-17T12:56:25.882Z,54.60
2018-08-17T12:58:54.397Z,54.40
2018-08-17T13:01:23.193Z,54.50
2018-08-17T13:03:52.072Z,55.60
2018-08-17T13:06:20.505Z,55.90
2018-08-17T13:08:49.133Z,55.80
2018-08-17T13:11:17.809Z,56.60
2018-08-17T13:13:46.517Z,56.80
2018-08-17T13:16:15.177Z,57.20
2018-08-17T13:18:43.649Z,57.40
2018-08-17T13:21:12.224Z,57.90
2018-08-17T13:23:40.863Z,58.80
2018-08-17T13:26:09.286Z,59.00
2018-08-17T13:28:38.641Z,59.40
2018-08-17T13:31:07.666Z,59.20
2018-08-17T13:33:36.244Z,59.60
2018-08-17T13:36:05.106Z,59.90
2018-08-17T13:38:33.719Z,60.00
2018-08-17T13:41:02.830Z,59.80
2018-08-17T13:43:31.868Z,59.20
2018-08-17T13:46:00.476Z,59.90
2018-08-17T13:48:29.069Z,59.90
2018-08-17T13:50:57.621Z,59.30
2018-08-17T13:53:26.890Z,59.10
2018-08-17T13:55:59.291Z,58.60
2018-08-17T13:58:27.817Z,59.00
2018-08-17T14:00:56.340Z,58.20
2018-08-17T14:03:25.454Z,59.20
2018-08-17T14:05:54.233Z,58.00
2018-08-17T14:08:22.940Z,57.40
2018-08-17T14:10:51.472Z,58.00
2018-08-17T14:13:21.060Z,58.30
2018-08-17T14:15:49.626Z,59.00
2018-08-17T14:18:18.028Z,58.60
2018-08-17T14:20:46.550Z,58.80
2018-08-17T14:23:15.066Z,58.80
2018-08-17T14:25:43.528Z,59.10
2018-08-17T14:28:17.247Z,59.00
2018-08-17T14:30:45.696Z,59.30
2018-08-17T14:33:14.808Z,59.50
2018-08-17T14:35:44.511Z,58.20
2018-08-17T14:38:13.313Z,58.30
2018-08-17T14:40:43.612Z,58.60
2018-08-17T14:43:12.741Z,58.60
2018-08-17T14:45:41.209Z,58.70
2018-08-17T14:48:10.033Z,59.20
2018-08-17T14:50:39.523Z,58.50
2018-08-17T14:53:08.081Z,59.50
2018-08-17T14:55:36.747Z,59.70
2018-08-17T14:58:05.789Z,60.40
2018-08-17T15:00:36.566Z,60.20
2018-08-17T15:03:05.060Z,60.70
2018-08-17T15:05:37.463Z,60.60
2018-08-17T15:08:06.537Z,61.90
2018-08-17T15:10:36.073Z,62.40
2018-08-17T15:13:04.620Z,62.60
2018-08-17T15:15:33.950Z,63.20
2018-08-17T15:18:03.292Z,63.80
2018-08-17T15:20:31.797Z,63.70
2018-08-17T15:23:00.871Z,63.40
2018-08-17T15:25:35.360Z,64.20
2018-08-17T15:28:04.521Z,63.80
2018-08-17T15:30:33.021Z,64.20
2018-08-17T15:33:01.454Z,63.80
2018-08-17T15:35:30.560Z,64.70
2018-08-17T15:38:03.516Z,65.00
2018-08-17T15:40:32.319Z,65.10
2018-08-17T15:43:05.005Z,64.70
2018-08-17T15:45:42.564Z,65.10
2018-08-17T15:48:15.525Z,64.50
2018-08-17T15:50:43.996Z,64.40
2018-08-17T15:53:13.241Z,65.30
2018-08-17T15:55:42.586Z,65.10
2018-08-17T15:58:11.187Z,64.40
2018-08-17T16:03:16.049Z,64.50
2018-08-17T16:05:44.841Z,65.70
2018-08-17T16:08:13.400Z,65.70
2018-08-17T16:10:41.861Z,65.40
2018-08-17T16:13:10.310Z,65.40
2018-08-17T16:15:40.012Z,65.40
2018-08-17T16:18:08.485Z,65.10
2018-08-17T16:20:37.717Z,64.10
2018-08-17T16:23:06.352Z,64.50
2018-08-17T16:25:40.653Z,64.20
2018-08-17T16:28:09.160Z,64.20
2018-08-17T16:30:38.685Z,64.20
2018-08-17T16:33:07.657Z,64.60
2018-08-17T16:38:10.517Z,65.50
2018-08-17T16:40:47.704Z,65.90
2018-08-17T16:43:21.677Z,65.30
2018-08-17T16:45:50.400Z,65.30
2018-08-17T16:48:19.602Z,65.90
2018-08-17T16:50:48.411Z,65.70
2018-08-17T16:53:17.851Z,65.50
2018-08-17T16:55:46.716Z,66.20
2018-08-17T16:58:15.398Z,65.50
2018-08-17T17:00:48.431Z,65.60
2018-08-17T17:03:17.734Z,65.10
2018-08-17T17:05:47.039Z,66.30
2018-08-17T17:08:15.797Z,66.90
2018-08-17T17:10:44.801Z,66.80
2018-08-17T17:13:14.063Z,66.70
2018-08-17T17:15:43.821Z,66.80
2018-08-17T17:18:13.256Z,66.50
2018-08-17T17:20:41.773Z,66.60
2018-08-17T17:23:11.933Z,66.50
2018-08-17T17:25:41.553Z,66.60
2018-08-17T17:28:14.162Z,66.80
2018-08-17T17:30:56.547Z,67.60
2018-08-17T17:33:25.570Z,68.20
2018-08-17T17:35:54.861Z,68.60
2018-08-17T17:38:24.290Z,68.80
2018-08-17T17:40:53.133Z,68.50
2018-08-17T17:43:21.604Z,68.70
2018-08-17T17:45:50.216Z,69.00
2018-08-17T17:48:19.445Z,69.30
2018-08-17T17:50:48.855Z,69.30
2018-08-17T17:53:20.041Z,69.60
2018-08-17T17:55:55.337Z,70.10
2018-08-17T17:58:23.973Z,70.10
2018-08-17T18:01:01.107Z,71.80
2018-08-17T18:03:31.262Z,71.00
2018-08-17T18:06:07.145Z,70.60
2018-08-17T18:08:35.698Z,70.30
2018-08-17T18:11:08.485Z,70.20
2018-08-17T18:13:42.344Z,70.70
2018-08-17T18:16:12.396Z,70.60
2018-08-17T18:18:41.232Z,71.20
2018-08-17T18:21:09.758Z,72.10
2018-08-17T18:23:38.253Z,72.10
2018-08-17T18:26:13.508Z,72.10
2018-08-17T18:28:42.128Z,71.90
2018-08-17T18:31:11.228Z,72.10
2018-08-17T18:33:40.832Z,72.30
2018-08-17T18:36:09.429Z,72.50
2018-08-17T18:38:37.931Z,71.90
2018-08-17T18:41:06.904Z,72.10
2018-08-17T18:43:36.332Z,72.90
2018-08-17T18:46:05.543Z,71.90
2018-08-17T18:48:34.103Z,71.60
2018-08-17T18:51:02.789Z,71.50
2018-08-17T18:53:31.271Z,71.80
2018-08-17T18:56:01.349Z,72.10
2018-08-17T18:58:31.111Z,72.50
2018-08-17T19:01:01.140Z,72.90
2018-08-17T19:03:30.074Z,73.00
2018-08-17T19:05:59.120Z,73.30
2018-08-17T19:08:27.788Z,73.70
2018-08-17T19:10:56.868Z,74.00
2018-08-17T19:13:25.438Z,74.20
2018-08-17T19:15:54.511Z,74.40
2018-08-17T19:18:24.112Z,74.70
2018-08-17T19:20:52.593Z,75.30
2018-08-17T19:23:21.039Z,75.60
2018-08-17T19:25:49.514Z,75.80
2018-08-17T19:28:17.965Z,75.60
2018-08-17T19:30:54.329Z,76.60
2018-08-17T19:33:36.029Z,76.70
2018-08-17T19:36:05.445Z,76.30
2018-08-17T19:38:39.438Z,75.50
2018-08-17T19:41:08.225Z,76.40
2018-08-17T19:43:37.591Z,75.80
2018-08-17T19:46:07.566Z,75.90
2018-08-17T19:48:40.018Z,75.90
2018-08-17T19:51:22.727Z,75.70
2018-08-17T19:53:56.165Z,75.00
2018-08-17T19:56:26.337Z,75.30
2018-08-17T19:58:54.813Z,75.10
2018-08-17T20:01:23.510Z,75.50
2018-08-17T20:03:53.359Z,74.80
2018-08-17T20:06:22.146Z,74.80
2018-08-17T20:08:50.913Z,74.90
2018-08-17T20:11:20.565Z,75.20
2018-08-17T20:13:54.751Z,75.20
2018-08-17T20:16:29.515Z,75.50
2018-08-17T20:19:02.629Z,76.20
2018-08-17T20:21:31.144Z,76.40
2018-08-17T20:23:59.651Z,76.60
2018-08-17T20:26:29.603Z,76.00
2018-08-17T20:29:02.694Z,76.60
2018-08-17T20:31:31.229Z,77.30
2018-08-17T20:34:05.748Z,77.90
2018-08-17T20:36:34.229Z,78.40
2018-08-17T20:39:08.004Z,78.80
2018-08-17T20:41:36.480Z,78.60
2018-08-17T20:44:05.469Z,78.30
2018-08-17T20:46:34.376Z,77.90
2018-08-17T20:49:07.468Z,77.70
2018-08-17T20:51:41.057Z,78.10
2018-08-17T20:54:10.232Z,78.70
2018-08-17T20:56:38.673Z,79.80
2018-08-17T20:59:07.854Z,79.50
2018-08-17T21:01:36.641Z,80.00
2018-08-17T21:04:05.101Z,80.30
2018-08-17T21:06:33.585Z,80.80
2018-08-17T21:09:02.093Z,81.30
2018-08-17T21:11:31.837Z,81.50
2018-08-17T21:14:01.261Z,81.70
2018-08-17T21:16:29.705Z,81.80
2018-08-17T21:18:59.033Z,81.70
2018-08-17T21:21:28.151Z,81.70
2018-08-17T21:23:56.714Z,81.60
2018-08-17T21:26:25.891Z,81.60
2018-08-17T21:28:54.370Z,82.70
2018-08-17T21:31:23.721Z,82.30
2018-08-17T21:33:52.246Z,82.20
2018-08-17T21:36:22.422Z,83.00
2018-08-17T21:39:06.387Z,83.30
2018-08-17T21:41:34.943Z,83.80
2018-08-17T21:44:03.445Z,83.50
2018-08-17T21:46:37.575Z,83.30
2018-08-17T21:49:07.005Z,84.10
2018-08-17T21:51:35.670Z,83.90
2018-08-17T21:54:05.515Z,84.00
2018-08-17T21:56:34.054Z,85.40
2018-08-17T21:59:02.535Z,84.20
2018-08-17T22:01:30.980Z,84.30
2018-08-17T22:03:59.573Z,84.50
2018-08-17T22:06:28.811Z,84.90
2018-08-17T22:08:57.945Z,85.30
2018-08-17T22:11:38.156Z,86.20
2018-08-17T22:14:07.472Z,86.40
2018-08-17T22:16:36.022Z,87.10
2018-08-17T22:19:05.213Z,87.30
2018-08-17T22:21:33.642Z,87.90
2018-08-17T22:24:02.146Z,88.00
2018-08-17T22:26:30.829Z,88.30
2018-08-17T22:28:59.389Z,88.50
2018-08-17T22:31:38.360Z,88.60
2018-08-17T22:34:06.815Z,88.20
2018-08-17T22:36:35.957Z,88.10
2018-08-17T22:39:06.503Z,88.20
2018-08-17T22:41:43.214Z,88.30
2018-08-17T22:44:24.210Z,88.30
2018-08-17T22:47:06.118Z,88.70
2018-08-17T22:49:40.795Z,88.80
2018-08-17T22:52:09.956Z,89.40
2018-08-17T22:54:46.541Z,89.10
2018-08-17T22:57:15.714Z,89.10
2018-08-17T22:59:44.280Z,89.50
2018-08-17T23:02:13.322Z,89.40
2018-08-17T23:04:42.409Z,89.60
2018-08-17T23:07:10.879Z,89.50
2018-08-17T23:09:43.541Z,89.80
2018-08-17T23:12:12.700Z,89.80
2018-08-17T23:14:41.249Z,89.90
